LKKU  Kunovice  Airport

Uherské Hradiště, Czech Republic

Add Bookmark
ICAO LKKU
IATA UHE
Type Airport
Status Operational
Latitude
49° 1' 45" N
49.029400
Longitude
17° 26' 22" E
17.439699
Local (GMT +2 ) UTC
May 27, 2016 02:16 pm May 27, 2016 12:16
Sunrise-Sunset Local UTC
Begin Civil Twilight 04:10 am 02:10
Sunrise 04:51 am 02:51
Sunset 08:43 pm 18:43
End Civil Twilight 09:24 pm 19:24
VFR
VFR
MVFR
MVFR
IFR
IFR
LIFR
LIFR
Unknown
Unavailable

Current Weather

METAR Observed VFR
LKKU 271100Z 15005KT CAVOK 24/11 Q1016 Fri, May 27, 2016 @ 11:00 UTC
(1 Hour, 16 Minutes ago)
Visual Flight Rules
Wind Visibility Conditions
150° at 5 knots (9 kph) 10 km or more
  • No significant weather
Temperatures Readings Precipitation
Current Temp
24°C
75°F
Dewpoint
11°C
52°F
Humidity 44%
Altimeter 30" Hg
Sea Level Pressure 1,016 mb
Field Elevation
177 m
581 ft
None Recorded

Additional weather within a 92.6km radius of LKKU

Map ICAO Location
LZPP 53.2km S/SE (148°)
LKTB 55.9km W/NW (284°)
LKMT 88.7km N/NE (033°)
VFR
VFR
MVFR
MVFR
IFR
IFR
LIFR
LIFR
Unknown
Unavailable
-
-

CheckWX.com is intended as a tool to help pilots better visualize weather data. It is not intended as a substitute for an official weather briefing obtained from a Flight Service Station. CheckWX.com does not meet the FAA requirements for an official pre-flight weather briefing. Therefore, it's important that pilots still call and obtain an official FSS pre-flight weather briefing.

© 2007-2016 CheckWX.com
12:16:21 UTC